• Join FlightAware (Why Join?)
  • Login
  • US Flag 
Rudolph Flight #1: Arrived! 
05:30PM EST


 

Airport Tracker/Info


-or-


 

Live Flight TrackerFlight Track Log ✈ N830QS ✈ 02-Jul-2014 ✈ 8S1 - KSJC

Flight Track Log - Related Links

Times and Time Zones

All times are in EDT time to prevent confusion due to time zone crossing. See the N830QS flight status page for this flight to view local times or setup timezone preferences in your user account.

Time Position Orientation Groundspeed Altitude Reporting Facility
EDT Latitude Longitude Course Direction KTS MPH feet Rate Location/Type
08:55AM 47.6728 -114.2722 202° Southwest 217 250 8,700  Level Seattle Center
08:56AM 47.6061 -114.3189 205° Southwest 241 277 11,000 2,280 Climbing Salt Lake Center
08:57AM 47.5292 -114.3733 206° Southwest 289 333 13,300 2,220 Climbing Salt Lake Center
08:58AM 47.4497 -114.4272 205° Southwest 309 356 15,600 2,160 Climbing Salt Lake Center
08:59AM 47.3697 -114.4842 206° Southwest 317 365 17,700 1,860 Climbing Salt Lake Center
09:00AM 47.2657 -114.5745 202° Southwest  Level Estimated
09:00AM 47.2842 -114.5431 205° Southwest 333 383 19,400  Level Salt Lake Center
09:00AM 47.2142 -114.5931 206° Southwest 344 396 20,700 1,620 Climbing Salt Lake Center
09:01AM 47.1236 -114.6556 205° Southwest 356 410 22,400 1,500 Climbing Salt Lake Center
09:02AM 47.0311 -114.7194 205° Southwest 364 419 23,800 1,320 Climbing Salt Lake Center
09:03AM 46.9347 -114.7853 205° Southwest 370 426 25,200 1,320 Climbing Salt Lake Center
09:04AM 46.8414 -114.8492 205° Southwest 377 434 26,500 1,320 Climbing Salt Lake Center
09:05AM 46.7267 -114.9267 205° Southwest 378 435 28,000 1,380 Climbing Salt Lake Center
09:06AM 46.6311 -114.9933 206° Southwest 379 436 29,300 1,320 Climbing Salt Lake Center
09:08AM 46.5342 -115.0567 204° Southwest 381 438 30,700 1,260 Climbing Salt Lake Center
09:09AM 46.4375 -115.1211 205° Southwest 381 438 31,900 1,260 Climbing Salt Lake Center
09:10AM 46.3425 -115.1856 205° Southwest 379 436 33,300 1,260 Climbing Salt Lake Center
09:11AM 46.2503 -115.2472 205° Southwest 380 437 34,500 1,200 Climbing Salt Lake Center
09:12AM 46.1550 -115.3094 204° Southwest 378 435 35,800 1,380 Climbing Salt Lake Center
09:13AM 46.0447 -115.3844 205° Southwest 374 430 37,400 1,380 Climbing Salt Lake Center
09:14AM 45.9525 -115.4422 204° Southwest 367 422 38,700 1,140 Climbing Salt Lake Center
09:15AM 45.8611 -115.5025 205° Southwest 353 406 39,900 600 Climbing Seattle Center
09:16AM 45.7711 -115.5614 205° Southwest 351 404 40,000  Climbing Seattle Center
09:17AM 45.6767 -115.6239 205° Southwest 369 425 40,000  Level Seattle Center
09:18AM 45.5825 -115.6872 205° Southwest 380 437 40,000  Level Seattle Center
09:19AM 45.4844 -115.7508 204° Southwest 385 443 40,000  Level Seattle Center
09:20AM 45.3661 -115.8261 204° Southwest 387 445 40,000  Level Seattle Center
09:21AM 45.2672 -115.8894 204° Southwest 388 447 40,000  Level Seattle Center
09:22AM 45.1669 -115.9525 204° Southwest 390 449 40,000  Level Seattle Center
09:23AM 45.0667 -116.0181 205° Southwest 393 452 40,000  Level Seattle Center
09:24AM 44.9669 -116.0817 204° Southwest 393 452 40,000  Level Seattle Center
09:25AM 44.8667 -116.1447 204° Southwest 396 456 40,000  Level Salt Lake Center
09:26AM 44.7669 -116.2086 204° Southwest 396 456 40,000  Level Salt Lake Center
09:27AM 44.6706 -116.2842 209° Southwest 397 457 40,000  Level Salt Lake Center
09:28AM 44.5758 -116.3611 210° Southwest 397 457 40,000  Level Salt Lake Center
09:29AM 44.4806 -116.4353 209° Southwest 397 457 40,000  Level Salt Lake Center
09:30AM 44.3658 -116.5250 209° Southwest 398 458 40,000  Level Salt Lake Center
09:31AM 44.2706 -116.5989 209° Southwest 397 457 40,000  Level Salt Lake Center
09:32AM 44.1750 -116.6736 209° Southwest 397 457 40,000  Level Salt Lake Center
09:33AM 44.0794 -116.7475 209° Southwest 396 456 40,000  Level Salt Lake Center
09:34AM 43.9839 -116.8208 209° Southwest 395 455 40,000  Level Salt Lake Center
09:35AM 43.8881 -116.8928 208° Southwest 394 453 40,000  Level Salt Lake Center
09:36AM 43.7897 -116.9592 206° Southwest 394 453 40,000  Level Salt Lake Center
09:37AM 43.6922 -117.0283 207° Southwest 394 453 40,000  Level Salt Lake Center
09:38AM 43.5742 -117.1067 206° Southwest 394 453 40,000  Level Salt Lake Center
09:39AM 43.4753 -117.1736 206° Southwest 394 453 40,000  Level Salt Lake Center
09:40AM 43.3781 -117.2400 206° Southwest 393 452 40,000  Level Salt Lake Center
09:41AM 43.2797 -117.3050 206° Southwest 391 450 40,000  Level Salt Lake Center
09:42AM 43.1819 -117.3711 206° Southwest 392 451 40,000  Level Salt Lake Center
09:43AM 43.0847 -117.4361 206° Southwest 391 450 40,000  Level Salt Lake Center
09:44AM 42.9861 -117.5028 206° Southwest 395 455 40,000  Level Salt Lake Center
09:45AM 42.8878 -117.5664 205° Southwest 392 451 40,000  Level Salt Lake Center
09:46AM 42.7897 -117.6308 206° Southwest 392 451 40,000  Level Salt Lake Center
09:47AM 42.6722 -117.7092 206° Southwest 393 452 40,000  Level Salt Lake Center
09:48AM 42.5742 -117.7714 205° Southwest 389 448 40,000  Level Salt Lake Center
09:49AM 42.4764 -117.8372 206° Southwest 391 450 40,000  Level Salt Lake Center
09:50AM 42.3778 -117.9003 205° Southwest 392 451 40,000  Level Salt Lake Center
09:51AM 42.2803 -117.9625 205° Southwest 391 450 40,000  Level Salt Lake Center
09:52AM 42.1822 -118.0272 206° Southwest 391 450 40,000  Level Salt Lake Center
09:53AM 42.0736 -118.0967 205° Southwest 390 449 40,000  Level Salt Lake Center
09:54AM 41.9806 -118.1564 206° Southwest 389 448 40,000  Level Salt Lake Center
09:56AM 41.8706 -118.2258 205° Southwest 390 449 40,000  Level Salt Lake Center
09:57AM 41.7781 -118.2850 206° Southwest 388 447 40,000  Level Salt Lake Center
09:58AM 41.6836 -118.3461 206° Southwest 389 448 40,000  Level Salt Lake Center
09:59AM 41.5756 -118.4125 205° Southwest 388 447 40,000  Level Salt Lake Center
10:00AM 41.4828 -118.4708 205° Southwest 388 447 40,000  Level Salt Lake Center
10:01AM 41.3728 -118.5408 206° Southwest 388 447 40,000  Level Salt Lake Center
10:02AM 41.2781 -118.6000 205° Southwest 390 449 40,000  Level Salt Lake Center
10:03AM 41.1667 -118.6678 205° Southwest 391 450 40,000  Level Salt Lake Center
10:04AM 41.0733 -118.7258 205° Southwest 391 450 40,000  Level Salt Lake Center
10:05AM 40.9794 -118.7836 205° Southwest 391 450 40,000  Level Salt Lake Center
10:06AM 40.8694 -118.8525 205° Southwest 390 449 40,000  Level Salt Lake Center
10:07AM 40.7767 -118.9097 205° Southwest 389 448 40,000  Level Salt Lake Center
10:08AM 40.6661 -118.9767 205° Southwest 389 448 40,000  Level Salt Lake Center
10:09AM 40.5725 -119.0328 204° Southwest 389 448 40,000  Level Salt Lake Center
10:10AM 40.4742 -119.0903 204° Southwest 390 449 40,000  Level Oakland Center
10:11AM 40.3672 -119.1197 192° South 391 450 40,000  Level Oakland Center
10:12AM 40.2600 -119.1461 191° South 391 450 40,000  Level Oakland Center
10:13AM 40.1522 -119.1744 191° South 394 453 40,000  Level Oakland Center
10:14AM 40.0231 -119.2064 191° South 394 453 40,000  Level Oakland Center
10:15AM 39.9169 -119.2328 191° South 394 453 40,000  Level Oakland Center
10:16AM 39.8094 -119.2583 190° South 393 452 40,000  Level Oakland Center
10:17AM 39.7028 -119.2853 191° South 393 452 40,000  Level Oakland Center
10:18AM 39.5956 -119.3119 191° South 394 453 40,000 -480 Level Oakland Center
10:19AM 39.4881 -119.3375 190° South 394 453 39,100 -1,140 Descending Oakland Center
10:20AM 39.3797 -119.3647 191° South 396 456 37,700 -1,500 Descending Oakland Center
10:21AM 39.2483 -119.3967 191° South 400 460 36,100 -900 Descending Oakland Center
10:22AM 39.1403 -119.4219 190° South 400 460 35,900 -780 Descending Oakland Center
10:23AM 39.0286 -119.4503 191° South 406 467 34,600 -960 Descending Oakland Center
10:24AM 38.9142 -119.4761 190° South 419 482 34,000 -780 Descending Oakland Center
10:25AM 38.8028 -119.5042 191° South 412 474 33,100 -1,020 Descending Oakland Center
10:26AM 38.6894 -119.5308 190° South 413 475 32,000 -540 Descending Oakland Center
10:27AM 38.5783 -119.5581 191° South 410 472 32,000  Level Oakland Center
10:28AM 38.4656 -119.5844 190° South 410 472 32,000  Level Oakland Center
10:29AM 38.3419 -119.6142 191° South 408 470 32,000  Level Oakland Center
10:30AM 38.2286 -119.6406 190° South 408 470 32,000 -480 Level Oakland Center
10:31AM 38.1164 -119.6681 191° South 408 470 31,100 -1,140 Descending Oakland Center
10:32AM 38.0028 -119.6944 190° South 410 472 29,700 -1,380 Descending Oakland Center
10:33AM 37.8886 -119.7214 191° South 415 478 28,300 -1,380 Descending Oakland Center
10:34AM 37.7778 -119.7478 191° South 411 473 26,900 -1,560 Descending Oakland Center
10:35AM 37.6553 -119.8103 202° Southwest 410 472 25,200 -1,500 Descending Oakland Center
10:36AM 37.5794 -119.9125 227° Southwest 401 461 23,800 -1,440 Descending Oakland Center
10:37AM 37.5050 -120.0164 228° Southwest 399 459 22,300 -1,440 Descending Oakland Center
10:39AM 37.4317 -120.1147 227° Southwest 391 450 20,900 -1,380 Descending Oakland Center
10:40AM 37.3608 -120.2106 227° Southwest 380 437 19,500 -1,440 Descending Oakland Center
10:41AM 37.2919 -120.3044 227° Southwest 369 425 18,000 -1,440 Descending Oakland Center
10:42AM 37.2231 -120.3981 227° Southwest 366 421 16,600 -1,020 Descending Oakland Center
10:43AM 37.1947 -120.5167 253° West 351 404 16,000 -1,080 Descending Oakland Center
10:44AM 37.1692 -120.6342 255° West 348 400 14,500 -1,860 Descending Oakland Center
10:45AM 37.1392 -120.7756 255° West 351 404 12,300 -1,500 Descending Oakland Center
10:47AM 37.0914 -120.9994 255° West 331 381 9,900 -780 Descending Oakland Center
10:48AM 37.0675 -121.1089 255° West 329 379 10,000 -60 Climbing Oakland Center
10:49AM 37.0467 -121.2017 254° West 289 333 9,800 -840 Descending Oakland Center
10:50AM 37.0292 -121.2856 255° West 259 298 8,400 -900 Descending Oakland Center
10:51AM 37.0100 -121.3678 254° West 253 291 8,000 -240 Descending Oakland Center
10:52AM 36.9919 -121.4519 255° West 252 290 8,000  Level Oakland Center
10:53AM 36.9742 -121.5369 255° West 252 290 8,000  Level Oakland Center
10:54AM 36.9544 -121.6222 254° West 252 290 8,000  Level Oakland Center
10:55AM 36.9781 -121.7208 287° West 276 318 8,000  Level Oakland Center
10:56AM 37.0414 -121.7844 321° Northwest 285 328 8,000  Level Oakland Center
10:57AM 37.1000 -121.8489 319° Northwest 285 328 8,000 -540 Level Oakland Center
10:58AM 37.1639 -121.9017 327° Northwest 281 323 7,000 -960 Descending Oakland Center
10:59AM 37.2356 -121.9408 336° Northwest 280 322 6,100 -840 Descending Oakland Center
11:00AM 37.2886 -121.9731 334° Northwest 222 255 5,300 -1,080 Descending Oakland Center
11:01AM 37.3344 -122.0150 324° Northwest 206 237 4,000 -1,140 Descending Oakland Center
11:02AM 37.3744 -122.0650 315° West 204 235 3,000 -540 Descending Oakland Center
11:03AM 37.4192 -122.1203 316° Northwest 197 227 3,000  Level Oakland Center
11:04AM 37.4597 -122.1311 348° North 194 223 3,000 -60 Level Oakland Center
11:05AM 37.4794 -122.0775 65° Northeast 202 232 2,900 -120 Descending Oakland Center
11:06AM 37.4653 -122.0275 110° East 173 199 2,800 -600 Descending Oakland Center
11:07AM 37.4289 -122.0067 156° South 157 181 1,700 60 Descending Oakland Center
11:08AM 37.3822 -121.9747 151° Southeast 184 212 3,000 600 Climbing Oakland Center
11:09AM 37.3294 -122.0033 203° Southwest 216 249 3,000  Level Oakland Center
11:10AM 37.3667 -122.0517 314° West 223 257 3,000  Level Oakland Center
11:11AM 37.4181 -122.0867 332° Northwest 217 250 3,000  Level Oakland Center
11:12AM 37.4647 -122.1464 315° West 207 238 3,000 -540 Level Oakland Center
11:13AM 37.5019 -122.1172 32° Northeast 190 219 2,000 -540 Descending Oakland Center
11:14AM 37.4983 -122.0797 97° East 160 184 2,000  Level Oakland Center
11:15AM 37.4703 -122.0511 141° Southeast 140 161 2,000 -60 Level Oakland Center
11:16AM 37.4425 -122.0208 139° Southeast 136 157 1,900 -360 Descending Oakland Center
11:17AM 37.4158 -121.9911 138° Southeast 134 154 1,300 -660 Descending Oakland Center
11:18AM 37.3906 -121.9636 139° Southeast 127 146 600 9,120 Descending Oakland Center
11:19AM 37.3669 -121.9369 138° Southeast 120 138 20,000 18,720 Climbing Oakland Center